Time;durP1;ratioP1;P1;durP2;ratioP2;P2;SDS_P1;SDS_P2;PMS_P1;PMS_P2;Temp;Humidity;BMP_temperature;BMP_pressure;BME280_temperature;BME280_humidity;BME280_pressure;Samples;Min_cycle;Max_cycle;Signal;HPM_P1;HPM_P2
2021/09/03 00:00:45;;;;;;;15.90;7.60;;;;;;;11.89;85.56;102421.56;5052664;28;20025;-53
2021/09/03 00:03:10;;;;;;;19.92;8.73;;;;;;;11.88;85.76;102420.75;5056874;28;20052;-51
2021/09/03 00:05:36;;;;;;;16.08;7.85;;;;;;;11.84;85.94;102413.31;5055249;28;20109;-51
2021/09/03 00:08:01;;;;;;;18.55;8.90;;;;;;;11.79;86.75;102412.09;5058912;28;20043;-49
2021/09/03 00:10:28;;;;;;;17.85;9.20;;;;;;;11.79;86.75;102408.59;5053532;28;20382;-49
2021/09/03 00:12:54;;;;;;;20.08;9.77;;;;;;;11.77;87.00;102398.03;5055217;28;20028;-51
2021/09/03 00:15:19;;;;;;;21.10;8.68;;;;;;;11.77;86.74;102402.59;5051534;28;20226;-50
2021/09/03 00:17:45;;;;;;;17.50;8.73;;;;;;;11.73;87.06;102404.88;5054891;28;20047;-52
2021/09/03 00:20:12;;;;;;;17.05;8.55;;;;;;;11.71;87.19;102393.53;5055034;28;20024;-52
2021/09/03 00:22:38;;;;;;;16.00;8.43;;;;;;;11.69;87.37;102394.81;5052270;28;20036;-51
2021/09/03 00:25:05;;;;;;;18.88;8.82;;;;;;;11.66;87.47;102395.22;5054304;28;20029;-50
2021/09/03 00:27:31;;;;;;;18.15;8.52;;;;;;;11.62;87.62;102397.50;5054807;28;20058;-50
2021/09/03 00:29:56;;;;;;;15.77;7.90;;;;;;;11.58;87.63;102385.56;5056184;28;20029;-49
2021/09/03 00:32:22;;;;;;;16.55;8.05;;;;;;;11.56;87.61;102379.59;5054479;28;20058;-54
2021/09/03 00:34:48;;;;;;;12.68;5.88;;;;;;;11.53;87.43;102385.38;5054007;28;20032;-49
2021/09/03 00:37:14;;;;;;;13.73;6.05;;;;;;;11.48;87.16;102379.81;5054534;28;20103;-50
2021/09/03 00:39:40;;;;;;;7.70;5.00;;;;;;;11.41;86.90;102379.03;5054476;28;20033;-51
2021/09/03 00:42:11;;;;;;;10.63;5.20;;;;;;;11.32;86.68;102378.47;5052319;28;20036;-50
2021/09/03 00:44:41;;;;;;;7.93;5.05;;;;;;;11.27;86.57;102378.25;5054675;28;20035;-51
2021/09/03 00:47:06;;;;;;;9.48;5.80;;;;;;;11.24;86.25;102375.19;5054030;28;20060;-49
2021/09/03 00:49:32;;;;;;;13.68;7.55;;;;;;;11.21;86.28;102373.75;5050760;28;20111;-50
2021/09/03 00:52:01;;;;;;;19.05;8.50;;;;;;;11.18;86.29;102358.09;5053783;28;20021;-49
2021/09/03 00:54:26;;;;;;;14.70;8.10;;;;;;;11.15;86.56;102364.72;5052384;28;20028;-49
2021/09/03 00:56:52;;;;;;;20.85;9.05;;;;;;;11.11;86.73;102359.97;5052608;28;20483;-49
2021/09/03 00:59:17;;;;;;;18.95;8.98;;;;;;;11.06;86.98;102370.50;5056160;28;20021;-51
2021/09/03 01:01:43;;;;;;;15.88;8.38;;;;;;;11.04;87.00;102362.66;5052112;28;20025;-49
2021/09/03 01:04:09;;;;;;;19.45;9.55;;;;;;;11.07;87.35;102359.56;5060180;28;20032;-51
2021/09/03 01:06:34;;;;;;;21.25;9.98;;;;;;;10.99;88.24;102357.13;5055497;28;20695;-52
2021/09/03 01:09:00;;;;;;;23.58;9.65;;;;;;;11.00;88.53;102355.28;5053676;28;20028;-50
2021/09/03 01:11:25;;;;;;;22.67;9.70;;;;;;;11.04;88.26;102357.31;5053841;28;20028;-50
2021/09/03 01:13:51;;;;;;;17.55;9.23;;;;;;;10.98;88.96;102360.84;5052536;28;20056;-49
2021/09/03 01:16:16;;;;;;;20.50;9.63;;;;;;;11.00;89.01;102357.94;5050954;28;20029;-53
2021/09/03 01:18:42;;;;;;;19.40;10.60;;;;;;;11.01;89.26;102359.59;5052653;28;20094;-52
2021/09/03 01:21:07;;;;;;;23.10;10.90;;;;;;;11.01;89.55;102359.59;5050502;28;20085;-50
2021/09/03 01:23:34;;;;;;;22.95;10.48;;;;;;;11.02;89.23;102355.88;5049244;28;20037;-53
2021/09/03 01:26:02;;;;;;;20.67;9.82;;;;;;;10.99;90.60;102351.75;5049197;28;20025;-51
2021/09/03 01:28:27;;;;;;;21.23;10.02;;;;;;;10.98;90.29;102355.47;5050613;28;20025;-52
2021/09/03 01:30:53;;;;;;;20.90;10.32;;;;;;;10.99;89.95;102351.75;5056742;28;20329;-49
2021/09/03 01:33:18;;;;;;;23.85;11.40;;;;;;;11.01;90.28;102343.50;5051892;28;20040;-51
2021/09/03 01:35:44;;;;;;;23.58;10.45;;;;;;;10.96;90.56;102341.47;5050443;28;20024;-50
2021/09/03 01:38:09;;;;;;;22.27;10.80;;;;;;;10.90;91.13;102342.28;5049786;28;20021;-51
2021/09/03 01:40:35;;;;;;;21.02;10.35;;;;;;;10.90;90.99;102343.13;5051716;28;20040;-52
2021/09/03 01:43:01;;;;;;;24.30;10.90;;;;;;;10.92;90.80;102339.41;5050989;28;20206;-49
2021/09/03 01:45:26;;;;;;;23.35;10.43;;;;;;;10.93;90.98;102338.34;5050510;28;20025;-51
2021/09/03 01:47:51;;;;;;;22.52;10.65;;;;;;;10.93;90.91;102335.69;5051659;28;20063;-52
2021/09/03 01:50:17;;;;;;;24.77;11.38;;;;;;;10.93;90.67;102339.19;5050443;28;20551;-51
2021/09/03 01:52:42;;;;;;;24.23;10.75;;;;;;;10.82;91.31;102329.13;5052759;28;20441;-50
2021/09/03 01:55:08;;;;;;;20.02;10.07;;;;;;;10.76;91.44;102322.72;5053325;28;20055;-52
2021/09/03 01:57:34;;;;;;;20.65;10.27;;;;;;;10.75;90.90;102313.03;5054257;28;20540;-52
2021/09/03 02:00:00;;;;;;;20.73;10.70;;;;;;;10.71;91.49;102316.38;5054077;28;20025;-49
2021/09/03 02:02:26;;;;;;;31.40;11.23;;;;;;;10.70;91.37;102317.41;5055374;28;20035;-51
2021/09/03 02:04:51;;;;;;;26.90;11.23;;;;;;;10.67;92.09;102315.97;5054881;28;20056;-51
2021/09/03 02:07:17;;;;;;;28.77;10.95;;;;;;;10.63;91.91;102308.56;5055932;28;20021;-51
2021/09/03 02:09:42;;;;;;;26.00;11.98;;;;;;;10.56;92.78;102301.34;5053338;28;20099;-50
2021/09/03 02:12:12;;;;;;;26.90;12.02;;;;;;;10.62;92.08;102296.19;5054692;28;20020;-51
2021/09/03 02:14:39;;;;;;;29.42;11.05;;;;;;;10.59;92.05;102302.78;5052303;28;20569;-52
2021/09/03 02:17:15;;;;;;;26.05;11.35;;;;;;;10.57;92.20;102300.31;5055082;28;20067;-52
2021/09/03 02:19:42;;;;;;;28.92;12.80;;;;;;;10.55;92.25;102291.66;5050641;28;20025;-49
2021/09/03 02:22:07;;;;;;;21.75;11.25;;;;;;;10.50;92.69;102296.84;5055279;28;20031;-51
2021/09/03 02:24:33;;;;;;;24.83;11.70;;;;;;;10.46;92.74;102292.94;5051340;28;20175;-53
2021/09/03 02:26:58;;;;;;;27.77;11.95;;;;;;;10.49;92.56;102289.00;5053476;28;20085;-52
2021/09/03 02:29:24;;;;;;;26.42;11.82;;;;;;;10.48;92.23;102285.50;5035756;28;20031;-50
2021/09/03 02:31:50;;;;;;;27.35;11.65;;;;;;;10.46;92.29;102284.06;5051022;28;20025;-53
2021/09/03 02:34:15;;;;;;;29.38;10.85;;;;;;;10.38;92.57;102276.25;5052233;28;20028;-51
2021/09/03 02:36:41;;;;;;;26.75;11.57;;;;;;;10.33;93.18;102282.22;5053054;28;20055;-52
2021/09/03 02:39:06;;;;;;;24.38;12.35;;;;;;;10.22;93.80;102274.81;5052079;28;20017;-50
2021/09/03 02:41:32;;;;;;;24.58;12.20;;;;;;;10.16;94.20;102287.16;5055286;28;20040;-53
2021/09/03 02:43:58;;;;;;;26.70;13.13;;;;;;;10.05;95.32;102282.44;5052590;28;20125;-50
2021/09/03 02:46:24;;;;;;;26.35;12.85;;;;;;;10.04;95.11;102288.81;5053518;28;20102;-49
2021/09/03 02:48:50;;;;;;;28.17;11.50;;;;;;;10.12;94.06;102288.63;5052926;28;20501;-50
2021/09/03 02:51:16;;;;;;;29.27;12.93;;;;;;;10.13;93.65;102284.09;5053154;28;20028;-52
2021/09/03 02:53:41;;;;;;;24.83;11.52;;;;;;;10.13;93.31;102276.88;5051878;28;20406;-52
2021/09/03 02:56:07;;;;;;;24.80;11.32;;;;;;;10.11;93.57;102273.59;5051827;28;20091;-49
2021/09/03 02:58:32;;;;;;;27.35;12.75;;;;;;;10.13;93.54;102276.06;5049818;28;20025;-52
2021/09/03 03:00:58;;;;;;;29.50;11.38;;;;;;;10.11;93.73;102272.75;5050601;28;20020;-50
2021/09/03 03:03:23;;;;;;;25.73;11.95;;;;;;;10.12;93.29;102258.34;5053420;28;20020;-53
2021/09/03 03:05:49;;;;;;;33.70;13.02;;;;;;;10.15;93.22;102253.38;5050855;28;20059;-50
2021/09/03 03:08:15;;;;;;;28.75;12.30;;;;;;;10.13;93.71;102244.72;5051742;28;20549;-50
2021/09/03 03:10:40;;;;;;;30.38;13.27;;;;;;;10.16;93.62;102246.16;5051718;28;20032;-51
2021/09/03 03:13:26;;;;;;;35.15;13.00;;;;;;;10.20;93.83;102247.38;5054202;28;20075;-53
2021/09/03 03:15:53;;;;;;;30.13;13.38;;;;;;;10.15;94.17;102237.31;5050131;28;20561;-52
2021/09/03 03:18:19;;;;;;;33.58;13.70;;;;;;;10.16;93.97;102238.13;5056606;28;20070;-51
2021/09/03 03:20:46;;;;;;;30.35;14.05;;;;;;;10.13;94.58;102239.38;5051639;28;20047;-53
2021/09/03 03:23:12;;;;;;;29.52;13.35;;;;;;;10.16;94.42;102238.94;5057202;28;20033;-50
2021/09/03 03:25:39;;;;;;;33.80;13.25;;;;;;;10.15;94.77;102239.16;5059448;28;20293;-51
2021/09/03 03:28:04;;;;;;;30.48;12.80;;;;;;;10.20;95.30;102234.00;5056027;28;20028;-50
2021/09/03 03:30:30;;;;;;;28.15;13.20;;;;;;;10.21;95.06;102236.50;5057317;28;20032;-52
2021/09/03 03:32:56;;;;;;;31.67;13.65;;;;;;;10.22;94.52;102227.44;5054920;28;20029;-50
2021/09/03 03:35:22;;;;;;;33.63;13.68;;;;;;;10.24;94.93;102232.59;5055942;28;20078;-51
2021/09/03 03:37:49;;;;;;;33.15;13.82;;;;;;;10.26;95.52;102227.84;5053464;28;20024;-51
2021/09/03 03:40:15;;;;;;;31.60;13.38;;;;;;;10.37;95.31;102229.88;5057241;28;20251;-50
2021/09/03 03:42:41;;;;;;;28.08;12.73;;;;;;;10.44;95.29;102225.34;5056860;28;20585;-52
2021/09/03 03:45:07;;;;;;;27.70;12.07;;;;;;;10.55;94.94;102231.88;5054982;28;20124;-50
2021/09/03 03:47:33;;;;;;;27.50;12.43;;;;;;;10.62;94.67;102221.97;5054790;28;20029;-53
2021/09/03 03:49:58;;;;;;;22.20;11.40;;;;;;;10.62;95.09;102226.50;5054800;28;20525;-49
2021/09/03 03:52:24;;;;;;;30.50;11.75;;;;;;;10.69;95.00;102222.75;5056411;28;20024;-51
2021/09/03 03:54:49;;;;;;;29.23;12.85;;;;;;;10.74;94.82;102220.25;5054639;28;21988;-50
2021/09/03 03:57:15;;;;;;;27.65;12.85;;;;;;;10.79;95.12;102228.50;5057840;28;20056;-52
2021/09/03 03:59:40;;;;;;;33.95;12.38;;;;;;;10.83;95.30;102221.66;5052948;28;20104;-52
2021/09/03 04:02:06;;;;;;;25.65;12.18;;;;;;;10.88;94.86;102221.00;5056952;28;20029;-50
2021/09/03 04:04:31;;;;;;;39.42;14.07;;;;;;;10.94;94.57;102217.47;5054235;28;20032;-49
2021/09/03 04:06:57;;;;;;;27.55;12.20;;;;;;;10.96;94.83;102210.06;5055313;28;20048;-50
2021/09/03 04:09:22;;;;;;;29.27;11.95;;;;;;;10.98;94.50;102204.47;5054416;28;20478;-50
2021/09/03 04:11:49;;;;;;;28.48;12.88;;;;;;;10.92;94.42;102200.78;5053532;28;20036;-51
2021/09/03 04:14:16;;;;;;;31.38;12.75;;;;;;;10.86;94.25;102201.66;5056293;28;20025;-53
2021/09/03 04:16:41;;;;;;;30.30;13.48;;;;;;;10.79;94.44;102195.50;5053076;28;20028;-51
2021/09/03 04:19:07;;;;;;;31.55;12.95;;;;;;;10.71;94.50;102191.19;5053622;28;20024;-49
2021/09/03 04:21:33;;;;;;;30.08;13.90;;;;;;;10.66;94.45;102184.84;5049708;28;20029;-53
2021/09/03 04:23:58;;;;;;;27.80;13.10;;;;;;;10.62;94.66;102183.63;5055751;28;20028;-51
2021/09/03 04:26:24;;;;;;;30.40;12.45;;;;;;;10.55;94.80;102180.94;5052207;28;20509;-49
2021/09/03 04:28:49;;;;;;;31.02;12.93;;;;;;;10.51;94.83;102183.25;5052365;28;20463;-49
2021/09/03 04:31:15;;;;;;;29.20;13.50;;;;;;;10.51;94.70;102183.25;5053053;28;20028;-53
2021/09/03 04:33:40;;;;;;;27.33;13.68;;;;;;;10.46;95.39;102183.06;5051815;28;20032;-49
2021/09/03 04:36:06;;;;;;;31.77;12.95;;;;;;;10.47;95.02;102184.72;5058282;28;20024;-49
2021/09/03 04:38:32;;;;;;;32.42;12.85;;;;;;;10.48;95.00;102185.53;5054798;28;20024;-52
2021/09/03 04:40:58;;;;;;;36.67;13.63;;;;;;;10.50;94.74;102186.97;5053741;28;20071;-49
2021/09/03 04:43:24;;;;;;;31.95;13.70;;;;;;;10.53;94.62;102181.16;5052563;28;20028;-50
2021/09/03 04:45:49;;;;;;;31.50;14.02;;;;;;;10.52;94.45;102182.22;5050698;28;20024;-51
2021/09/03 04:48:15;;;;;;;30.45;13.77;;;;;;;10.41;95.47;102174.84;5052724;28;20483;-53
2021/09/03 04:50:41;;;;;;;29.23;12.98;;;;;;;10.49;94.71;102173.78;5048359;28;21828;-50
2021/09/03 04:53:07;;;;;;;34.53;13.98;;;;;;;10.36;95.33;102177.31;5048454;28;20032;-52
2021/09/03 04:55:32;;;;;;;31.02;13.60;;;;;;;10.24;96.36;102171.00;5042944;28;20032;-52
2021/09/03 04:57:58;;;;;;;27.30;12.02;;;;;;;10.24;97.16;102176.34;5051498;28;20367;-49
2021/09/03 05:00:24;;;;;;;33.08;14.45;;;;;;;10.30;96.49;102164.78;5053581;28;20498;-50
2021/09/03 05:02:49;;;;;;;35.55;14.07;;;;;;;10.43;95.77;102164.75;5047361;28;20098;-50
2021/09/03 05:05:15;;;;;;;32.75;14.05;;;;;;;10.56;95.12;102163.84;5057538;28;20747;-52
2021/09/03 05:07:41;;;;;;;30.63;14.25;;;;;;;10.68;94.60;102161.31;5050632;28;20512;-51
2021/09/03 05:10:08;;;;;;;35.33;14.80;;;;;;;10.79;94.45;102163.34;5054820;28;20054;-49
2021/09/03 05:12:39;;;;;;;34.20;14.55;;;;;;;10.93;94.09;102164.88;5051056;28;20257;-49
2021/09/03 05:15:09;;;;;;;36.03;15.05;;;;;;;11.10;93.67;102154.44;5057406;28;20450;-50
2021/09/03 05:17:34;;;;;;;32.03;15.15;;;;;;;11.17;94.19;102160.59;5048751;28;20490;-52
2021/09/03 05:20:00;;;;;;;31.75;15.07;;;;;;;11.34;93.50;102155.53;5052155;28;20017;-51
2021/09/03 05:22:26;;;;;;;33.67;15.18;;;;;;;11.44;93.71;102150.47;5050423;28;20054;-50
2021/09/03 05:24:51;;;;;;;38.28;15.00;;;;;;;11.49;94.67;102147.97;5045631;28;20135;-52
2021/09/03 05:27:17;;;;;;;36.58;15.77;;;;;;;11.66;93.74;102143.66;5051004;28;20017;-52
2021/09/03 05:29:42;;;;;;;32.45;15.27;;;;;;;11.80;93.53;102137.16;5054397;28;20032;-50
2021/09/03 05:32:08;;;;;;;32.50;15.38;;;;;;;11.95;92.91;102141.34;5058954;28;20024;-50
2021/09/03 05:34:33;;;;;;;37.75;15.73;;;;;;;12.08;92.45;102143.91;5053060;28;20028;-53
2021/09/03 05:36:59;;;;;;;37.72;14.35;;;;;;;12.15;92.85;102150.00;5052093;28;20387;-54
2021/09/03 05:39:24;;;;;;;28.80;14.00;;;;;;;12.15;92.92;102152.69;5053476;28;20035;-50
2021/09/03 05:41:50;;;;;;;35.80;13.43;;;;;;;12.36;92.11;102157.59;5055190;28;20033;-51
2021/09/03 05:44:15;;;;;;;30.08;14.82;;;;;;;12.49;91.74;102153.13;5056502;28;20040;-50
2021/09/03 05:46:41;;;;;;;30.25;14.15;;;;;;;12.62;91.08;102158.34;5054321;28;20406;-54
2021/09/03 05:49:06;;;;;;;29.60;14.10;;;;;;;12.73;90.89;102144.09;5050949;28;20024;-50
2021/09/03 05:51:31;;;;;;;27.00;12.77;;;;;;;12.76;90.19;102154.41;5052195;28;20025;-52
2021/09/03 05:53:57;;;;;;;27.38;13.50;;;;;;;12.94;89.85;102151.69;5050904;28;20017;-50
2021/09/03 05:56:23;;;;;;;30.63;12.45;;;;;;;13.08;89.29;102140.69;5055400;28;20024;-53
2021/09/03 05:58:48;;;;;;;26.40;12.52;;;;;;;13.28;88.16;102135.84;5053545;28;20132;-50
2021/09/03 06:01:14;;;;;;;32.17;13.13;;;;;;;13.31;88.14;102135.41;5055284;28;20051;-52
2021/09/03 06:03:40;;;;;;;28.38;14.25;;;;;;;13.51;87.25;102130.50;5052471;28;20028;-51
2021/09/03 06:06:05;;;;;;;26.13;12.80;;;;;;;13.60;86.86;102126.38;5054046;28;20032;-52
2021/09/03 06:08:31;;;;;;;26.23;12.60;;;;;;;13.72;86.31;102128.25;5054723;28;20032;-51
2021/09/03 06:10:57;;;;;;;29.67;12.98;;;;;;;13.89;85.63;102132.69;5053814;28;20151;-50
2021/09/03 06:13:23;;;;;;;27.75;13.32;;;;;;;14.06;84.75;102130.09;5056805;28;20017;-53
2021/09/03 06:15:48;;;;;;;27.02;11.95;;;;;;;14.01;84.28;102126.50;5053786;28;20393;-50
2021/09/03 06:18:14;;;;;;;23.45;11.90;;;;;;;14.07;83.98;102130.91;5049793;28;20020;-54
2021/09/03 06:20:40;;;;;;;27.02;13.25;;;;;;;14.05;84.15;102133.84;5048808;28;20134;-50
2021/09/03 06:23:05;;;;;;;28.17;12.77;;;;;;;14.20;83.47;102131.47;5050999;28;20029;-53
2021/09/03 06:25:31;;;;;;;25.08;12.27;;;;;;;14.38;83.13;102135.06;5050214;28;20153;-53
2021/09/03 06:27:56;;;;;;;28.45;13.05;;;;;;;14.30;83.32;102135.41;5046466;28;20040;-51
2021/09/03 06:30:22;;;;;;;27.70;12.00;;;;;;;14.47;82.41;102134.47;5049708;28;20386;-51
2021/09/03 06:32:47;;;;;;;23.08;12.35;;;;;;;14.83;81.83;102132.44;5050115;28;20524;-50
2021/09/03 06:35:14;;;;;;;24.65;11.60;;;;;;;15.07;79.19;102139.31;5049590;28;20048;-53
2021/09/03 06:37:39;;;;;;;24.23;11.20;;;;;;;15.12;78.96;102130.50;5050418;28;20023;-52
2021/09/03 06:40:06;;;;;;;21.90;11.82;;;;;;;15.26;78.44;102137.22;5047000;28;20097;-53
2021/09/03 06:42:32;;;;;;;25.00;12.18;;;;;;;15.35;78.30;102124.94;5046322;28;20043;-51
2021/09/03 06:45:01;;;;;;;21.73;12.65;;;;;;;15.24;78.04;102133.13;5050834;28;20024;-50
2021/09/03 06:47:28;;;;;;;22.67;12.05;;;;;;;14.68;79.18;102127.56;5050918;28;20508;-51
2021/09/03 06:49:53;;;;;;;24.33;10.75;;;;;;;14.53;79.92;102121.88;5048054;28;20037;-51
2021/09/03 06:52:28;;;;;;;24.65;11.10;;;;;;;14.90;79.07;102113.38;5055213;28;20024;-49
2021/09/03 06:55:03;;;;;;;23.42;10.80;;;;;;;14.67;79.35;102112.44;5055191;28;20020;-52
2021/09/03 06:57:29;;;;;;;19.45;10.10;;;;;;;15.07;78.82;102106.09;5052301;28;20350;-50
2021/09/03 06:59:55;;;;;;;23.65;10.93;;;;;;;15.17;78.53;102105.47;5047221;28;20031;-50
2021/09/03 07:02:20;;;;;;;23.25;10.80;;;;;;;15.28;77.96;102093.78;5048257;28;20034;-51
2021/09/03 07:04:46;;;;;;;23.67;10.43;;;;;;;15.09;77.63;102104.81;5047926;28;20564;-50
2021/09/03 07:07:11;;;;;;;18.58;10.43;;;;;;;15.65;77.01;102099.47;5052785;28;20500;-53
2021/09/03 07:09:37;;;;;;;24.00;11.85;;;;;;;15.32;76.88;102109.22;5052478;28;20020;-51
2021/09/03 07:12:03;;;;;;;22.73;10.75;;;;;;;15.26;77.12;102104.81;5054331;28;20040;-53
2021/09/03 07:14:28;;;;;;;20.83;11.27;;;;;;;15.51;77.02;102100.88;5053295;28;20024;-51
2021/09/03 07:16:54;;;;;;;22.58;11.43;;;;;;;15.68;76.70;102096.28;5050796;28;20052;-49
2021/09/03 07:19:19;;;;;;;24.23;13.15;;;;;;;15.37;75.97;102101.19;5054262;28;20023;-50
2021/09/03 07:21:45;;;;;;;22.13;11.45;;;;;;;15.71;75.21;102087.66;5049628;28;20043;-51
2021/09/03 07:24:11;;;;;;;23.92;12.05;;;;;;;15.69;75.79;102079.00;5057838;28;20025;-50
2021/09/03 07:26:37;;;;;;;25.88;12.20;;;;;;;15.83;75.17;102077.56;5052499;28;20505;-51
2021/09/03 07:29:04;;;;;;;20.40;11.05;;;;;;;15.98;75.03;102069.66;5051087;28;20025;-52
2021/09/03 07:31:32;;;;;;;22.85;12.15;;;;;;;16.36;74.88;102070.63;5051877;28;20165;-53
2021/09/03 07:33:57;;;;;;;23.70;11.77;;;;;;;16.08;73.71;102077.06;5053271;28;20021;-52
2021/09/03 07:36:23;;;;;;;20.42;12.35;;;;;;;15.85;74.14;102069.22;5049741;28;20086;-51
2021/09/03 07:38:48;;;;;;;21.35;12.27;;;;;;;16.19;74.01;102075.31;5051560;28;20451;-52
2021/09/03 07:41:14;;;;;;;21.10;11.52;;;;;;;16.60;72.50;102071.13;5052831;28;20024;-53
2021/09/03 07:43:39;;;;;;;22.02;11.88;;;;;;;16.67;72.35;102071.75;5051336;28;20033;-52
2021/09/03 07:46:05;;;;;;;21.73;11.82;;;;;;;17.01;71.11;102061.50;5053113;28;20394;-52
2021/09/03 07:48:31;;;;;;;27.77;12.98;;;;;;;16.88;70.20;102064.66;5051805;28;20123;-51
2021/09/03 07:50:57;;;;;;;23.73;12.05;;;;;;;16.83;70.95;102062.69;5054403;28;20036;-50
2021/09/03 07:53:22;;;;;;;25.92;12.30;;;;;;;17.14;70.56;102050.22;5052905;28;20055;-52
2021/09/03 07:55:48;;;;;;;24.50;12.18;;;;;;;16.80;69.81;102046.97;5052135;28;20028;-51
2021/09/03 07:58:14;;;;;;;26.05;12.43;;;;;;;16.98;69.86;102044.97;5050528;28;20123;-53
2021/09/03 08:00:39;;;;;;;25.25;11.60;;;;;;;17.32;68.86;102050.88;5052702;28;20287;-53
2021/09/03 08:03:05;;;;;;;22.33;12.63;;;;;;;17.05;69.26;102046.34;5052785;28;20046;-52
2021/09/03 08:05:31;;;;;;;24.52;11.45;;;;;;;17.41;67.93;102060.94;5053178;28;20034;-53
2021/09/03 08:07:57;;;;;;;20.52;11.55;;;;;;;17.27;68.94;102059.81;5052738;28;20434;-52
2021/09/03 08:10:23;;;;;;;24.38;11.45;;;;;;;17.27;68.32;102053.56;5051824;28;20063;-54
2021/09/03 08:12:49;;;;;;;24.67;11.35;;;;;;;16.83;68.68;102059.19;5055006;28;20029;-52
2021/09/03 08:15:15;;;;;;;21.70;10.70;;;;;;;17.01;69.04;102049.84;5053893;28;20406;-52
2021/09/03 08:17:41;;;;;;;25.00;11.93;;;;;;;16.76;69.37;102043.16;5051916;28;20115;-51
2021/09/03 08:20:09;;;;;;;21.40;12.13;;;;;;;16.74;69.03;102041.78;5040018;28;20083;-53
2021/09/03 08:22:36;;;;;;;24.92;11.27;;;;;;;17.11;68.58;102045.34;5045388;28;21947;-52
2021/09/03 08:25:02;;;;;;;21.70;10.77;;;;;;;17.39;68.16;102035.19;5051115;28;20025;-52
2021/09/03 08:27:28;;;;;;;16.13;9.85;;;;;;;17.78;67.19;102036.53;5049170;28;20024;-50
2021/09/03 08:29:54;;;;;;;21.98;11.50;;;;;;;18.22;66.56;102030.69;5039879;28;20423;-52
2021/09/03 08:32:20;;;;;;;20.67;9.63;;;;;;;18.43;64.09;102029.63;5053296;28;20053;-52
2021/09/03 08:34:45;;;;;;;15.70;9.50;;;;;;;18.40;65.48;102021.22;5050474;28;20036;-54
2021/09/03 08:37:11;;;;;;;21.90;10.40;;;;;;;18.51;63.98;102022.06;5049863;28;20111;-51
2021/09/03 08:39:37;;;;;;;18.35;10.05;;;;;;;18.74;63.32;102015.31;5048937;28;20078;-53
2021/09/03 08:42:03;;;;;;;21.27;11.00;;;;;;;18.33;63.36;102018.78;5052113;28;20032;-53
2021/09/03 08:44:32;;;;;;;18.63;9.80;;;;;;;18.61;63.48;102019.34;5051100;28;20024;-51
2021/09/03 08:46:59;;;;;;;16.92;9.20;;;;;;;18.93;62.33;102021.81;5051960;28;20480;-55
2021/09/03 08:49:25;;;;;;;18.58;9.63;;;;;;;18.69;62.61;102027.00;5053350;28;20035;-54
2021/09/03 08:51:52;;;;;;;15.98;8.77;;;;;;;19.25;61.84;102029.66;5053604;28;20043;-55
2021/09/03 08:54:21;;;;;;;19.67;9.82;;;;;;;18.60;61.65;102015.00;5048175;28;20044;-53
2021/09/03 08:56:47;;;;;;;17.73;8.73;;;;;;;18.96;62.46;102015.84;5054691;28;20024;-51
2021/09/03 08:59:14;;;;;;;20.25;9.75;;;;;;;18.79;61.02;102020.72;5049977;28;20063;-51
2021/09/03 09:01:40;;;;;;;16.25;8.70;;;;;;;19.28;60.52;102020.94;5052011;28;20029;-51
2021/09/03 09:04:13;;;;;;;17.40;8.80;;;;;;;19.19;59.54;102022.59;5048225;28;20521;-53
2021/09/03 09:06:39;;;;;;;15.32;9.13;;;;;;;18.90;60.64;102012.31;5053214;28;20486;-52
2021/09/03 09:09:06;;;;;;;18.90;8.15;;;;;;;19.11;60.56;102012.28;5050641;28;20152;-60
2021/09/03 09:11:34;;;;;;;14.15;8.05;;;;;;;19.26;60.29;102013.06;5056289;28;20228;-51
2021/09/03 09:14:04;;;;;;;14.43;7.60;;;;;;;18.74;60.86;102012.59;5049821;28;20042;-51
2021/09/03 09:16:31;;;;;;;13.30;8.05;;;;;;;18.92;60.27;102014.75;5047442;28;20137;-51
2021/09/03 09:19:03;;;;;;;13.63;8.45;;;;;;;19.26;59.13;102014.97;5054030;28;20056;-51
2021/09/03 09:21:31;;;;;;;16.88;8.35;;;;;;;19.55;59.17;102009.75;5050529;28;20027;-49
2021/09/03 09:24:01;;;;;;;11.95;8.55;;;;;;;19.61;59.43;102000.50;5056975;28;20060;-55
2021/09/03 09:26:45;;;;;;;16.23;8.40;;;;;;;19.90;58.50;102006.03;5056567;28;20437;-54
2021/09/03 09:29:24;;;;;;;12.88;7.53;;;;;;;19.38;57.41;102001.06;5050671;28;20064;-50
2021/09/03 09:31:56;;;;;;;13.32;8.38;;;;;;;19.70;58.28;101998.00;5048677;28;20556;-49
2021/09/03 09:34:28;;;;;;;13.73;8.90;;;;;;;19.43;58.21;101999.16;5053309;28;20075;-51
2021/09/03 09:36:55;;;;;;;15.70;8.48;;;;;;;19.54;57.14;101995.34;5056615;28;20040;-54
2021/09/03 09:39:23;;;;;;;14.25;8.40;;;;;;;19.81;57.90;101994.16;5052730;28;20075;-52
2021/09/03 09:42:03;;;;;;;13.15;7.72;;;;;;;19.86;55.90;101985.94;5054108;28;20032;-53
2021/09/03 09:44:35;;;;;;;16.63;9.50;;;;;;;20.02;56.32;101992.94;5050394;28;20383;-50
2021/09/03 09:47:09;;;;;;;11.85;6.72;;;;;;;19.84;55.83;101990.88;5049489;28;20483;-52
2021/09/03 09:49:35;;;;;;;15.02;8.07;;;;;;;19.91;56.67;101989.44;5050758;28;20025;-55
2021/09/03 09:52:02;;;;;;;12.43;8.20;;;;;;;20.50;55.84;101985.03;5054565;28;20082;-52
2021/09/03 09:54:27;;;;;;;13.27;9.07;;;;;;;20.61;55.23;101988.44;5050262;28;20086;-51
2021/09/03 09:57:01;;;;;;;14.02;8.77;;;;;;;20.57;54.42;101990.13;5053311;28;20037;-52
2021/09/03 09:59:29;;;;;;;11.00;7.85;;;;;;;20.52;54.67;101989.06;5048365;28;20032;-53
2021/09/03 10:02:00;;;;;;;14.65;7.57;;;;;;;20.41;54.18;101989.44;5051762;28;20113;-50
2021/09/03 10:04:29;;;;;;;10.75;8.38;;;;;;;20.28;53.18;101982.69;5047928;28;20032;-52
2021/09/03 10:06:59;;;;;;;14.52;8.48;;;;;;;20.93;53.45;101971.53;5050460;28;20025;-49
2021/09/03 10:09:27;;;;;;;13.20;8.13;;;;;;;21.26;53.11;101964.41;5052412;28;20642;-51
2021/09/03 10:11:55;;;;;;;13.30;8.25;;;;;;;21.41;52.43;101967.78;5050567;28;20028;-50
2021/09/03 10:14:24;;;;;;;16.67;9.27;;;;;;;20.98;51.78;101966.03;5052394;28;20243;-50
2021/09/03 10:16:51;;;;;;;18.90;8.65;;;;;;;20.68;53.30;101965.25;5057069;28;20127;-51
2021/09/03 10:19:24;;;;;;;14.80;9.77;;;;;;;21.05;52.96;101967.34;5050767;28;20376;-49
2021/09/03 10:21:50;;;;;;;13.18;8.88;;;;;;;21.46;52.25;101963.34;5052159;28;20060;-53
2021/09/03 10:24:23;;;;;;;14.68;9.20;;;;;;;21.61;52.10;101957.72;5052684;28;20782;-51
2021/09/03 10:26:50;;;;;;;14.60;8.48;;;;;;;21.98;52.19;101946.81;5052525;28;20032;-54
2021/09/03 10:29:22;;;;;;;13.90;9.20;;;;;;;21.08;50.04;101964.03;5054569;28;20512;-53
2021/09/03 10:34:40;;;;;;;15.60;9.48;;;;;;;21.00;51.65;101961.09;5054169;28;20498;-54
2021/09/03 10:37:15;;;;;;;16.80;9.55;;;;;;;21.62;50.97;101957.41;5050694;28;20039;-53
2021/09/03 10:39:55;;;;;;;15.57;9.45;;;;;;;21.40;51.53;101960.69;5051297;28;20103;-50
2021/09/03 10:42:43;;;;;;;12.27;7.80;;;;;;;21.38;50.61;101949.28;5059437;28;20028;-49
2021/09/03 10:45:10;;;;;;;13.13;8.23;;;;;;;21.44;51.15;101943.75;5053758;28;20033;-52
2021/09/03 10:47:58;;;;;;;17.67;8.73;;;;;;;21.70;51.76;101950.47;5058128;28;20033;-51
2021/09/03 10:50:26;;;;;;;13.43;9.00;;;;;;;21.58;50.02;101942.75;5056333;28;20119;-53
2021/09/03 10:53:04;;;;;;;15.25;8.80;;;;;;;21.82;48.95;101942.69;5055148;28;20051;-55
2021/09/03 10:56:03;;;;;;;13.95;9.15;;;;;;;21.42;49.23;101947.59;5056072;28;20502;-50
2021/09/03 10:58:32;;;;;;;14.18;9.35;;;;;;;21.34;50.30;101936.50;5059412;28;20067;-51
2021/09/03 11:01:13;;;;;;;14.50;8.52;;;;;;;21.44;50.25;101941.03;5056255;28;20029;-51
2021/09/03 11:03:49;;;;;;;12.30;8.18;;;;;;;21.99;49.63;101929.31;5054973;28;20040;-53
2021/09/03 11:06:26;;;;;;;11.45;7.95;;;;;;;21.94;49.77;101931.34;5053613;28;20029;-54
2021/09/03 11:08:56;;;;;;;13.20;8.32;;;;;;;22.41;49.58;101922.13;5053397;28;20410;-53
2021/09/03 11:11:26;;;;;;;13.20;9.27;;;;;;;22.26;48.33;101922.38;5058893;28;20498;-52
2021/09/03 11:13:55;;;;;;;12.55;8.13;;;;;;;22.50;48.20;101922.25;5056647;28;20613;-54